Yemassee, SC (29945)

6:29 AM EST on December 28, 2014 (GMT -0500)
Beaufort Marine Corps Air Station | Change Station
CLOSE
Current Station
Airport
Location: Beaufort MCAS,
Elevation: 39 ft
Nearby Weather Stations

Elev 39 ft 32.48 °N, 80.72 °W | Updated 33 minutes ago

Partly Cloudy
Partly Cloudy
53 °F
Feels Like 53 °F
N
0
Wind Variable Wind from North

Today
High -- | Low -- °F
--% Chance of Precip.
Yesterday
High -- | Low -- °F
Precip. -- in
7:23 AM 5:25 PM
Waxing Crescent, 47% visible
Pressure 30.13 in
Visibility 10.0 miles
Clouds Clear
Dew Point 50 °F
Humidity 89%
Rainfall 0.00 in
Snow Depth Not available.
UV 0 out of 12
Pollen 1.30 out of 12
Air Quality Not available.
Flu Activity Not available.
METAR KNBC 281056Z AUTO 00000KT 10SM CLR 12/10 A3013 RMK AO2 SLP202 T01170100

More Conditions Fewer Conditions

Pressure 30.13 in
Visibility 10.0 miles
Clouds Clear
Dew Point 50 °F
Humidity 89%
Rainfall 0.00 in
Snow Depth Not available.
UV 0 out of 12
Pollen 1.30 out of 12
Air Quality Not available.
Flu Activity Not available.
METAR KNBC 281056Z AUTO 00000KT 10SM CLR 12/10 A3013 RMK AO2 SLP202 T01170100

More Conditions Fewer Conditions

10-Day Weather Forecast

Almanac

Astronomy

Dec. 28, 2014 Rise Set
Actual Time
Civil Twilight
Nautical Twilight
Astronomical Twilight
Moon
Length of Visible Light
Length of Day
Tomorrow will be .
, % of the Moon is Illuminated

Today's Extremes

State Highs State Lows

Community

WunderPhotos

Upload Photos

1,781,232 photos uploaded!

WunderBlogs® & News

Nearby

Air Quality

  Air Quality AQ Index Pollutant
Not available.

Snow Depth

Station Depth Elevation

Earthquake Activity

City Distance Mag. Time & Date
Minimum magnitude displayed is 2.5.

Coastal Water Temperatures

Place Temperature

Nearby Weather Stations